createdAt,value
2022-10-06T00:02:24.649Z,2.97
2022-10-06T00:04:51.375Z,3.03
2022-10-06T00:07:18.164Z,2.80
2022-10-06T00:09:44.820Z,3.20
2022-10-06T00:12:11.620Z,2.90
2022-10-06T00:14:38.228Z,2.80
2022-10-06T00:17:05.231Z,2.90
2022-10-06T00:19:31.945Z,2.80
2022-10-06T00:21:58.646Z,2.87
2022-10-06T00:24:25.244Z,3.20
2022-10-06T00:26:54.775Z,3.00
2022-10-06T00:29:21.751Z,3.07
2022-10-06T00:31:48.443Z,2.70
2022-10-06T00:34:15.070Z,2.97
2022-10-06T00:36:41.748Z,3.00
2022-10-06T00:39:08.388Z,3.00
2022-10-06T00:41:35.178Z,3.10
2022-10-06T00:44:01.846Z,3.80
2022-10-06T00:46:41.006Z,3.07
2022-10-06T00:49:36.205Z,3.20
2022-10-06T00:52:08.756Z,3.00
2022-10-06T00:54:36.446Z,2.90
2022-10-06T00:57:04.451Z,2.40
2022-10-06T00:59:31.156Z,2.57
2022-10-06T01:02:03.644Z,2.63
2022-10-06T01:04:36.858Z,2.60
2022-10-06T01:07:03.890Z,2.07
2022-10-06T01:09:31.589Z,2.10
2022-10-06T01:12:04.135Z,1.87
2022-10-06T01:14:31.459Z,1.30
2022-10-06T01:17:04.159Z,1.00
2022-10-06T01:19:52.484Z,0.90
2022-10-06T01:22:35.341Z,1.07
2022-10-06T01:25:04.306Z,1.30
2022-10-06T01:27:33.841Z,1.30
2022-10-06T01:30:01.291Z,1.10
2022-10-06T01:32:34.189Z,1.30
2022-10-06T01:35:00.836Z,1.27
2022-10-06T01:37:28.415Z,1.10
2022-10-06T01:39:55.108Z,1.00
2022-10-06T01:42:23.679Z,1.33
2022-10-06T01:44:50.625Z,1.37
2022-10-06T01:47:17.426Z,1.40
2022-10-06T01:49:44.060Z,1.37
2022-10-06T01:52:11.314Z,1.10
2022-10-06T01:54:37.981Z,1.10
2022-10-06T01:57:10.569Z,1.20
2022-10-06T01:59:37.943Z,1.20
2022-10-06T02:02:04.748Z,1.10
2022-10-06T02:04:31.591Z,0.97
2022-10-06T02:06:58.926Z,0.97
2022-10-06T02:09:25.989Z,1.00
2022-10-06T02:11:54.152Z,1.50
2022-10-06T02:14:20.794Z,0.80
2022-10-06T02:16:47.482Z,0.70
2022-10-06T02:19:14.301Z,0.67
2022-10-06T02:21:42.066Z,0.70
2022-10-06T02:24:09.615Z,0.60
2022-10-06T02:26:36.797Z,0.63
2022-10-06T02:29:03.526Z,0.73
2022-10-06T02:31:31.289Z,0.83
2022-10-06T02:33:58.933Z,0.60
2022-10-06T02:36:25.777Z,0.50
2022-10-06T02:38:52.500Z,0.77
2022-10-06T02:41:20.016Z,1.20
2022-10-06T02:43:47.562Z,0.70
2022-10-06T02:46:15.451Z,0.50
2022-10-06T02:48:48.630Z,0.73
2022-10-06T02:51:17.537Z,0.80
2022-10-06T02:53:47.408Z,0.53
2022-10-06T02:56:22.292Z,0.47
2022-10-06T02:58:50.496Z,0.70
2022-10-06T03:01:43.319Z,0.73
2022-10-06T03:04:14.895Z,0.90
2022-10-06T03:06:42.166Z,0.87
2022-10-06T03:09:29.072Z,0.90
2022-10-06T03:11:56.400Z,1.03
2022-10-06T03:14:43.642Z,0.83
2022-10-06T03:17:10.413Z,0.80
2022-10-06T03:19:43.520Z,0.70
2022-10-06T03:22:10.582Z,0.60
2022-10-06T03:24:49.667Z,0.50
2022-10-06T03:27:16.378Z,0.70
2022-10-06T03:29:43.095Z,1.00
2022-10-06T03:32:09.699Z,0.80
2022-10-06T03:34:37.611Z,0.70
2022-10-06T03:37:06.842Z,0.70
2022-10-06T03:39:34.201Z,0.87
2022-10-06T03:42:01.432Z,0.83
2022-10-06T03:44:28.111Z,0.93
2022-10-06T03:46:54.829Z,0.67
2022-10-06T03:49:21.572Z,0.60
2022-10-06T03:51:48.244Z,0.70
2022-10-06T03:54:24.775Z,1.00
2022-10-06T03:56:53.561Z,0.63
2022-10-06T03:59:20.377Z,0.63
2022-10-06T04:01:48.966Z,0.80
2022-10-06T04:04:23.901Z,0.90
2022-10-06T04:06:54.974Z,0.73
2022-10-06T04:09:21.774Z,0.73
2022-10-06T04:11:48.667Z,0.70
2022-10-06T04:14:16.546Z,0.73
2022-10-06T04:16:47.181Z,1.03
2022-10-06T04:19:17.360Z,1.00
2022-10-06T04:21:48.577Z,1.17
2022-10-06T04:24:19.470Z,0.70
2022-10-06T04:26:52.252Z,0.90
2022-10-06T04:29:20.506Z,1.10
2022-10-06T04:31:55.713Z,0.77
2022-10-06T04:34:34.539Z,1.00
2022-10-06T04:37:01.208Z,0.80
2022-10-06T04:39:27.945Z,0.90
2022-10-06T04:41:54.723Z,1.00
2022-10-06T04:44:24.931Z,1.00
2022-10-06T04:46:53.832Z,0.80
2022-10-06T04:49:21.018Z,0.60
2022-10-06T04:51:51.074Z,1.00
2022-10-06T04:54:21.182Z,0.83
2022-10-06T04:56:52.992Z,1.20
2022-10-06T04:59:42.123Z,0.97
2022-10-06T05:02:09.799Z,1.47
2022-10-06T05:04:37.872Z,1.37
2022-10-06T05:07:05.565Z,1.10
2022-10-06T05:09:32.397Z,1.80
2022-10-06T05:12:00.709Z,1.97
2022-10-06T05:14:27.404Z,1.40
2022-10-06T05:16:54.102Z,1.90
2022-10-06T05:19:20.775Z,2.13
2022-10-06T05:21:47.515Z,1.80
2022-10-06T05:24:18.153Z,2.87
2022-10-06T05:26:44.963Z,1.90
2022-10-06T05:29:14.205Z,1.40
2022-10-06T05:31:43.363Z,1.10
2022-10-06T05:34:10.952Z,0.90
2022-10-06T05:36:38.336Z,1.30
2022-10-06T05:39:06.259Z,1.00
2022-10-06T05:41:49.033Z,1.53
2022-10-06T05:44:15.706Z,1.20
2022-10-06T05:46:43.815Z,1.07
2022-10-06T05:49:12.814Z,1.00
2022-10-06T05:51:47.002Z,0.83
2022-10-06T05:54:21.872Z,0.90
2022-10-06T05:56:49.232Z,1.10
2022-10-06T05:59:16.279Z,0.93
2022-10-06T06:01:43.833Z,0.93
2022-10-06T06:04:20.797Z,1.40
2022-10-06T06:06:52.928Z,1.30
2022-10-06T06:09:22.599Z,1.17
2022-10-06T06:11:59.967Z,1.40
2022-10-06T06:14:55.253Z,1.20
2022-10-06T06:17:25.341Z,1.10
2022-10-06T06:19:52.006Z,1.00
2022-10-06T06:22:18.602Z,1.03
2022-10-06T06:24:48.209Z,1.07
2022-10-06T06:27:14.878Z,0.83
2022-10-06T06:29:41.584Z,1.10
2022-10-06T06:32:09.539Z,0.90
2022-10-06T06:34:36.511Z,1.00
2022-10-06T06:37:08.535Z,0.90
2022-10-06T06:39:36.787Z,0.90
2022-10-06T06:42:05.147Z,0.90
2022-10-06T06:44:37.870Z,1.00
2022-10-06T06:47:10.105Z,0.90
2022-10-06T06:49:36.738Z,0.93
2022-10-06T06:52:06.865Z,1.10
2022-10-06T06:54:35.122Z,1.20
2022-10-06T06:57:07.164Z,1.00
2022-10-06T06:59:34.094Z,1.10
2022-10-06T07:02:01.099Z,0.93
2022-10-06T07:04:30.610Z,0.90
2022-10-06T07:06:58.284Z,1.10
2022-10-06T07:09:36.426Z,1.10
2022-10-06T07:12:13.345Z,1.40
2022-10-06T07:15:04.837Z,1.30
2022-10-06T07:17:58.367Z,1.40
2022-10-06T07:20:48.105Z,1.38
2022-10-06T07:23:39.007Z,1.63
2022-10-06T07:26:10.700Z,1.33
2022-10-06T07:28:37.451Z,1.58
2022-10-06T07:31:04.195Z,1.60
2022-10-06T07:33:32.699Z,2.10
2022-10-06T07:36:02.878Z,1.60
2022-10-06T07:38:30.660Z,2.00
2022-10-06T07:43:48.243Z,1.60
2022-10-06T07:46:16.427Z,2.13
2022-10-06T07:48:53.600Z,1.70
2022-10-06T07:51:20.333Z,2.27
2022-10-06T07:53:50.692Z,3.40
2022-10-06T07:56:23.604Z,2.97
2022-10-06T07:58:54.072Z,2.30
2022-10-06T08:01:20.922Z,2.00
2022-10-06T08:03:50.422Z,2.07
2022-10-06T08:06:18.853Z,1.97
2022-10-06T08:08:52.504Z,1.63
2022-10-06T08:11:20.912Z,2.07
2022-10-06T08:13:51.673Z,1.85
2022-10-06T08:16:21.120Z,1.70
2022-10-06T08:18:53.293Z,1.67
2022-10-06T08:21:29.214Z,1.70
2022-10-06T08:23:58.064Z,22.77
2022-10-06T08:26:26.639Z,11.02
2022-10-06T08:28:57.439Z,3.20
2022-10-06T08:31:24.266Z,3.30
2022-10-06T08:33:56.002Z,3.20
2022-10-06T08:36:29.817Z,3.13
2022-10-06T08:38:57.906Z,2.58
2022-10-06T08:41:48.450Z,2.00
2022-10-06T08:44:17.964Z,1.85
2022-10-06T08:46:49.389Z,1.80
2022-10-06T08:49:20.316Z,2.03
2022-10-06T08:51:58.459Z,2.35
2022-10-06T08:54:37.102Z,5.95
2022-10-06T08:57:37.283Z,2.08
2022-10-06T09:00:11.943Z,2.10
2022-10-06T09:02:49.198Z,1.70
2022-10-06T09:05:19.308Z,1.50
2022-10-06T09:08:01.268Z,2.25
2022-10-06T09:10:49.091Z,2.10
2022-10-06T09:13:29.022Z,1.90
2022-10-06T09:16:07.501Z,1.73
2022-10-06T09:19:03.827Z,2.25
2022-10-06T09:21:37.716Z,1.80
2022-10-06T09:24:15.714Z,3.50
2022-10-06T09:26:45.335Z,2.20
2022-10-06T09:29:13.067Z,1.95
2022-10-06T09:31:42.569Z,1.85
2022-10-06T09:34:37.447Z,2.15
2022-10-06T09:37:09.067Z,15.00
2022-10-06T09:39:37.756Z,9.30
2022-10-06T09:42:27.014Z,4.90
2022-10-06T09:45:20.473Z,2.30
2022-10-06T09:47:47.236Z,5.70
2022-10-06T09:50:24.269Z,2.38
2022-10-06T09:53:06.167Z,2.05
2022-10-06T09:55:43.269Z,1.90
2022-10-06T09:58:20.636Z,2.30
2022-10-06T10:00:54.130Z,1.65
2022-10-06T10:03:21.796Z,1.80
2022-10-06T10:05:50.791Z,1.90
2022-10-06T10:08:27.285Z,2.08
2022-10-06T10:11:41.918Z,1.63
2022-10-06T10:14:20.272Z,1.95
2022-10-06T10:16:52.358Z,1.58
2022-10-06T10:19:28.054Z,1.85
2022-10-06T10:21:57.595Z,1.77
2022-10-06T10:24:47.544Z,1.90
2022-10-06T10:27:51.209Z,1.40
2022-10-06T10:30:18.607Z,2.10
2022-10-06T10:33:09.077Z,1.60
2022-10-06T10:35:45.727Z,1.73
2022-10-06T10:38:19.893Z,2.00
2022-10-06T10:40:54.739Z,1.70
2022-10-06T10:43:41.590Z,1.80
2022-10-06T10:46:42.993Z,1.75
2022-10-06T10:49:20.441Z,2.05
2022-10-06T10:52:06.637Z,1.80
2022-10-06T10:54:51.815Z,2.00
2022-10-06T10:57:35.192Z,1.60
2022-10-06T11:00:08.553Z,1.95
2022-10-06T11:02:35.788Z,1.65
2022-10-06T11:05:30.351Z,1.52
2022-10-06T11:08:09.165Z,1.55
2022-10-06T11:10:46.316Z,1.45
2022-10-06T11:13:37.359Z,1.60
2022-10-06T11:16:25.451Z,1.73
2022-10-06T11:19:01.069Z,1.55
2022-10-06T11:21:34.607Z,1.55
2022-10-06T11:24:16.296Z,1.50
2022-10-06T11:27:20.122Z,1.88
2022-10-06T11:30:05.513Z,1.70
2022-10-06T11:33:10.068Z,4.47
2022-10-06T11:35:41.451Z,2.17
2022-10-06T11:38:24.838Z,1.70
2022-10-06T11:41:10.294Z,2.30
2022-10-06T11:43:46.203Z,4.80
2022-10-06T11:46:12.833Z,14.57
2022-10-06T11:48:40.489Z,9.50
2022-10-06T11:51:25.271Z,6.15
2022-10-06T11:53:52.755Z,6.22
2022-10-06T11:56:19.376Z,2.35
2022-10-06T11:58:52.090Z,2.30
2022-10-06T12:01:43.832Z,2.08
2022-10-06T12:04:10.519Z,2.28
2022-10-06T12:06:52.704Z,5.00
2022-10-06T12:09:25.922Z,4.70
2022-10-06T12:12:00.113Z,2.85
2022-10-06T12:17:28.107Z,4.13
2022-10-06T12:20:08.665Z,2.83
2022-10-06T12:22:47.152Z,1.73
2022-10-06T12:25:32.513Z,2.03
2022-10-06T12:28:26.720Z,1.77
2022-10-06T12:31:18.677Z,1.90
2022-10-06T12:33:46.139Z,1.60
2022-10-06T12:36:23.254Z,1.80
2022-10-06T12:39:02.396Z,1.80
2022-10-06T12:42:01.994Z,2.00
2022-10-06T12:44:36.271Z,2.30
2022-10-06T12:47:10.445Z,1.90
2022-10-06T12:49:45.799Z,1.87
2022-10-06T12:52:25.009Z,1.60
2022-10-06T12:55:15.066Z,2.10
2022-10-06T12:57:47.892Z,2.03
2022-10-06T13:00:34.085Z,1.60
2022-10-06T13:03:03.177Z,1.80
2022-10-06T13:05:30.178Z,1.43
2022-10-06T13:07:59.596Z,1.53
2022-10-06T13:10:26.899Z,1.30
2022-10-06T13:12:55.369Z,1.03
2022-10-06T13:15:34.400Z,1.13
2022-10-06T13:18:12.993Z,1.40
2022-10-06T13:20:48.393Z,1.30
2022-10-06T13:23:20.727Z,1.07
2022-10-06T13:25:58.125Z,1.10
2022-10-06T13:28:36.666Z,1.30
2022-10-06T13:31:18.064Z,1.23
2022-10-06T13:33:46.786Z,1.30
2022-10-06T13:36:14.213Z,1.00
2022-10-06T13:38:41.783Z,0.97
2022-10-06T13:41:11.162Z,1.23
2022-10-06T13:43:41.681Z,1.47
2022-10-06T13:46:12.180Z,1.40
2022-10-06T13:48:45.926Z,1.10
2022-10-06T13:51:18.861Z,1.33
2022-10-06T13:53:47.747Z,1.40
2022-10-06T13:56:36.182Z,1.37
2022-10-06T13:59:38.283Z,0.90
2022-10-06T14:02:22.282Z,1.40
2022-10-06T14:05:21.295Z,1.27
2022-10-06T14:07:49.274Z,1.23
2022-10-06T14:10:29.103Z,1.23
2022-10-06T14:12:55.917Z,1.37
2022-10-06T14:15:29.428Z,1.40
2022-10-06T14:18:00.188Z,1.60
2022-10-06T14:20:35.767Z,1.23
2022-10-06T14:23:02.431Z,0.90
2022-10-06T14:25:29.033Z,1.50
2022-10-06T14:27:55.784Z,1.33
2022-10-06T14:30:22.481Z,1.10
2022-10-06T14:32:49.626Z,1.00
2022-10-06T14:35:16.285Z,1.73
2022-10-06T14:37:42.888Z,1.57
2022-10-06T14:40:12.149Z,1.43
2022-10-06T14:42:39.032Z,1.60
2022-10-06T14:45:06.269Z,1.83
2022-10-06T14:47:32.922Z,1.90
2022-10-06T14:49:59.617Z,1.90
2022-10-06T14:52:26.298Z,2.07
2022-10-06T14:54:52.942Z,1.70
2022-10-06T14:57:20.894Z,1.50
2022-10-06T14:59:47.672Z,1.23
2022-10-06T15:02:14.399Z,1.53
2022-10-06T15:04:41.036Z,1.47
2022-10-06T15:07:26.288Z,1.30
2022-10-06T15:09:52.952Z,1.50
2022-10-06T15:12:19.573Z,1.33
2022-10-06T15:14:46.263Z,1.60
2022-10-06T15:17:12.962Z,1.40
2022-10-06T15:19:40.303Z,1.40
2022-10-06T15:22:08.835Z,1.10
2022-10-06T15:24:35.570Z,1.70
2022-10-06T15:27:24.673Z,1.37
2022-10-06T15:29:51.837Z,1.40
2022-10-06T15:32:18.439Z,1.40
2022-10-06T15:34:45.181Z,1.37
2022-10-06T15:37:11.773Z,1.67
2022-10-06T15:39:38.475Z,1.27
2022-10-06T15:42:05.776Z,2.53
2022-10-06T15:44:34.550Z,1.40
2022-10-06T15:47:03.728Z,1.47
2022-10-06T15:49:32.583Z,1.40
2022-10-06T15:52:02.614Z,1.53
2022-10-06T15:54:37.916Z,1.50
2022-10-06T15:57:08.538Z,1.77
2022-10-06T15:59:35.907Z,1.83
2022-10-06T16:02:07.232Z,1.80
2022-10-06T16:04:39.336Z,1.80
2022-10-06T16:07:11.337Z,1.50
2022-10-06T16:09:43.533Z,1.50
2022-10-06T16:12:16.203Z,1.50
2022-10-06T16:14:43.889Z,1.57
2022-10-06T16:17:11.735Z,1.90
2022-10-06T16:19:39.994Z,1.73
2022-10-06T16:22:08.583Z,1.77
2022-10-06T16:24:35.315Z,1.47
2022-10-06T16:27:02.207Z,2.70
2022-10-06T16:29:28.875Z,2.93
2022-10-06T16:31:55.851Z,2.60
2022-10-06T16:34:22.939Z,2.20
2022-10-06T16:36:49.574Z,1.80
2022-10-06T16:39:21.371Z,1.67
2022-10-06T16:41:48.823Z,1.30
2022-10-06T16:44:15.508Z,1.60
2022-10-06T16:46:42.307Z,1.70
2022-10-06T16:49:09.737Z,1.37
2022-10-06T16:51:38.378Z,1.37
2022-10-06T16:54:09.754Z,1.43
2022-10-06T16:56:41.886Z,2.50
2022-10-06T16:59:17.001Z,2.00
2022-10-06T17:01:44.363Z,2.00
2022-10-06T17:04:25.171Z,2.70
2022-10-06T17:06:56.814Z,2.47
2022-10-06T17:09:25.856Z,3.67
2022-10-06T17:11:54.987Z,4.73
2022-10-06T17:14:22.027Z,5.60
2022-10-06T17:16:51.186Z,6.87
2022-10-06T17:19:20.290Z,6.70
2022-10-06T17:21:49.619Z,7.53
2022-10-06T17:24:18.976Z,6.60
2022-10-06T17:26:48.389Z,6.10
2022-10-06T17:29:18.747Z,3.20
2022-10-06T17:31:46.321Z,3.30
2022-10-06T17:34:20.020Z,3.40
2022-10-06T17:36:48.963Z,2.70
2022-10-06T17:39:18.109Z,2.80
2022-10-06T17:41:45.745Z,5.03
2022-10-06T17:44:18.767Z,4.40
2022-10-06T17:46:45.533Z,5.33
2022-10-06T17:49:14.974Z,5.93
2022-10-06T17:51:45.133Z,4.47
2022-10-06T17:54:16.933Z,5.27
2022-10-06T17:56:44.612Z,4.83
2022-10-06T17:59:17.660Z,4.50
2022-10-06T18:01:44.815Z,4.70
2022-10-06T18:04:15.504Z,3.80
2022-10-06T18:06:43.484Z,4.27
2022-10-06T18:09:10.432Z,3.40
2022-10-06T18:11:41.942Z,3.50
2022-10-06T18:14:20.183Z,3.77
2022-10-06T18:16:56.623Z,3.13
2022-10-06T18:19:35.391Z,3.47
2022-10-06T18:22:10.295Z,2.47
2022-10-06T18:24:37.725Z,2.50
2022-10-06T18:27:06.223Z,2.43
2022-10-06T18:29:36.001Z,2.43
2022-10-06T18:37:36.611Z,2.73
2022-10-06T18:40:06.448Z,3.13
2022-10-06T18:42:33.125Z,3.33
2022-10-06T18:45:18.506Z,2.97
2022-10-06T18:48:03.823Z,3.10
2022-10-06T18:50:31.046Z,3.80
2022-10-06T18:52:57.837Z,4.40
2022-10-06T18:55:26.293Z,7.10
2022-10-06T18:57:53.208Z,5.97
2022-10-06T19:00:19.857Z,4.70
2022-10-06T19:02:49.265Z,3.33
2022-10-06T19:05:17.386Z,3.30
2022-10-06T19:07:44.892Z,3.70
2022-10-06T19:10:11.992Z,3.97
2022-10-06T19:12:38.907Z,3.90
2022-10-06T19:15:06.043Z,3.90
2022-10-06T19:17:32.793Z,3.50
2022-10-06T19:19:59.424Z,3.60
2022-10-06T19:22:26.094Z,2.77
2022-10-06T19:24:52.931Z,2.90
2022-10-06T19:27:24.951Z,2.50
2022-10-06T19:29:53.967Z,2.07
2022-10-06T19:32:24.640Z,2.37
2022-10-06T19:34:52.156Z,2.93
2022-10-06T19:37:18.970Z,2.60
2022-10-06T19:39:48.018Z,2.70
2022-10-06T19:42:35.658Z,2.73
2022-10-06T19:45:03.675Z,2.70
2022-10-06T19:47:30.350Z,3.13
2022-10-06T19:50:02.130Z,3.47
2022-10-06T19:52:31.328Z,4.33
2022-10-06T19:54:58.814Z,4.73
2022-10-06T19:57:28.641Z,4.80
2022-10-06T19:59:55.278Z,5.20
2022-10-06T20:02:22.746Z,5.10
2022-10-06T20:04:50.385Z,5.37
2022-10-06T20:07:21.390Z,5.67
2022-10-06T20:09:48.630Z,4.77
2022-10-06T20:12:17.819Z,4.77
2022-10-06T20:14:47.554Z,4.07
2022-10-06T20:17:14.219Z,5.00
2022-10-06T20:19:40.798Z,4.37
2022-10-06T20:22:07.469Z,4.80
2022-10-06T20:24:34.121Z,4.40
2022-10-06T20:27:00.747Z,4.37
2022-10-06T20:29:28.107Z,4.90
2022-10-06T20:31:56.665Z,4.57
2022-10-06T20:34:26.739Z,4.83
2022-10-06T20:36:56.238Z,4.37
2022-10-06T20:39:42.106Z,3.77
2022-10-06T20:42:13.918Z,4.37
2022-10-06T20:44:42.220Z,4.50
2022-10-06T20:47:10.198Z,4.00
2022-10-06T20:49:37.195Z,4.07
2022-10-06T20:52:05.665Z,4.10
2022-10-06T20:54:34.779Z,4.87
2022-10-06T20:57:04.907Z,4.30
2022-10-06T20:59:35.016Z,4.47
2022-10-06T21:02:02.281Z,4.60
2022-10-06T21:04:29.196Z,4.10
2022-10-06T21:06:56.070Z,4.13
2022-10-06T21:09:24.219Z,4.83
2022-10-06T21:11:51.023Z,4.60
2022-10-06T21:14:18.112Z,4.60
2022-10-06T21:16:46.921Z,4.50
2022-10-06T21:19:16.635Z,4.27
2022-10-06T21:21:49.743Z,4.30
2022-10-06T21:24:16.748Z,4.60
2022-10-06T21:26:43.628Z,4.10
2022-10-06T21:29:15.416Z,3.80
2022-10-06T21:31:43.297Z,4.30
2022-10-06T21:34:10.395Z,4.23
2022-10-06T21:36:37.624Z,3.80
2022-10-06T21:39:05.677Z,3.93
2022-10-06T21:41:40.676Z,4.00
2022-10-06T21:44:13.196Z,3.80
2022-10-06T21:46:41.508Z,3.60
2022-10-06T21:49:13.767Z,4.13
2022-10-06T21:51:41.620Z,4.43
2022-10-06T21:54:10.369Z,3.90
2022-10-06T21:56:37.634Z,4.13
2022-10-06T21:59:04.670Z,4.10
2022-10-06T22:01:36.875Z,3.93
2022-10-06T22:04:04.425Z,4.07
2022-10-06T22:06:33.175Z,3.90
2022-10-06T22:09:01.191Z,4.60
2022-10-06T22:11:30.621Z,4.23
2022-10-06T22:13:59.802Z,4.60
2022-10-06T22:16:29.305Z,4.40
2022-10-06T22:18:56.893Z,4.57
2022-10-06T22:21:30.110Z,4.63
2022-10-06T22:24:02.032Z,5.70
2022-10-06T22:26:30.892Z,7.53
2022-10-06T22:28:58.643Z,4.97
2022-10-06T22:31:27.239Z,3.67
2022-10-06T22:33:58.976Z,3.70
2022-10-06T22:36:27.251Z,3.43
2022-10-06T22:38:55.283Z,3.40
2022-10-06T22:41:22.504Z,3.13
2022-10-06T22:43:49.304Z,3.30
2022-10-06T22:46:15.960Z,3.30
2022-10-06T22:48:42.634Z,2.87
2022-10-06T22:51:09.272Z,2.83
2022-10-06T22:53:35.919Z,3.33
2022-10-06T22:56:03.891Z,2.97
2022-10-06T22:58:31.056Z,3.10
2022-10-06T23:00:57.787Z,3.07
2022-10-06T23:03:24.706Z,3.40
2022-10-06T23:06:00.028Z,3.43
2022-10-06T23:08:30.161Z,2.83
2022-10-06T23:11:10.314Z,2.93
2022-10-06T23:13:37.372Z,3.57
2022-10-06T23:16:07.742Z,3.17
2022-10-06T23:18:36.737Z,3.00
2022-10-06T23:21:04.150Z,2.97
2022-10-06T23:23:31.237Z,3.00
2022-10-06T23:26:04.060Z,3.27
2022-10-06T23:28:30.799Z,3.10
2022-10-06T23:30:57.462Z,3.13
2022-10-06T23:33:24.091Z,3.00
2022-10-06T23:36:01.312Z,3.40
2022-10-06T23:38:28.363Z,3.20
2022-10-06T23:40:55.305Z,3.33
2022-10-06T23:43:22.994Z,3.23
2022-10-06T23:45:50.237Z,3.50
2022-10-06T23:48:17.115Z,3.10
2022-10-06T23:50:53.955Z,2.97
2022-10-06T23:53:20.563Z,3.10
2022-10-06T23:55:47.307Z,2.83
2022-10-06T23:58:14.682Z,3.07
